sensor_id;sensor_type;location;lat;lon;timestamp;noise_LAeq;noise_LA_min;noise_LA_max;noise_LA01;noise_LA95
40103;Laerm;25814;48.550;9.108;2022-10-16T00:01:28;33.51;28.13;47.73;;
40103;Laerm;25814;48.550;9.108;2022-10-16T00:03:55;33.86;28.62;52.59;;
40103;Laerm;25814;48.550;9.108;2022-10-16T00:06:22;33.23;28.41;47.96;;
40103;Laerm;25814;48.550;9.108;2022-10-16T00:08:49;34.40;28.26;49.68;;
40103;Laerm;25814;48.550;9.108;2022-10-16T00:11:23;32.13;27.83;46.44;;
40103;Laerm;25814;48.550;9.108;2022-10-16T00:13:55;31.73;28.52;49.22;;
40103;Laerm;25814;48.550;9.108;2022-10-16T00:16:21;31.36;28.15;41.91;;
40103;Laerm;25814;48.550;9.108;2022-10-16T00:18:50;30.89;28.01;46.36;;
40103;Laerm;25814;48.550;9.108;2022-10-16T00:21:20;30.95;28.15;41.85;;
40103;Laerm;25814;48.550;9.108;2022-10-16T00:23:46;34.90;28.19;48.96;;
40103;Laerm;25814;48.550;9.108;2022-10-16T00:26:17;33.81;28.50;41.04;;
40103;Laerm;25814;48.550;9.108;2022-10-16T00:28:47;32.00;28.26;38.87;;
40103;Laerm;25814;48.550;9.108;2022-10-16T00:31:14;31.85;27.85;41.03;;
40103;Laerm;25814;48.550;9.108;2022-10-16T00:33:41;30.84;27.86;45.11;;
40103;Laerm;25814;48.550;9.108;2022-10-16T00:36:12;30.60;28.09;43.50;;
40103;Laerm;25814;48.550;9.108;2022-10-16T00:38:39;31.48;27.85;52.09;;
40103;Laerm;25814;48.550;9.108;2022-10-16T00:41:07;31.36;27.54;44.97;;
40103;Laerm;25814;48.550;9.108;2022-10-16T00:43:58;35.72;28.15;61.32;;
40103;Laerm;25814;48.550;9.108;2022-10-16T00:46:41;30.70;28.03;43.12;;
40103;Laerm;25814;48.550;9.108;2022-10-16T00:49:11;30.61;28.10;42.59;;
40103;Laerm;25814;48.550;9.108;2022-10-16T00:51:51;30.60;28.25;51.43;;
40103;Laerm;25814;48.550;9.108;2022-10-16T00:54:28;30.09;27.49;44.05;;
40103;Laerm;25814;48.550;9.108;2022-10-16T00:57:00;29.97;28.00;41.20;;
40103;Laerm;25814;48.550;9.108;2022-10-16T00:59:34;29.94;27.99;40.52;;
40103;Laerm;25814;48.550;9.108;2022-10-16T01:02:03;30.11;27.96;41.95;;
40103;Laerm;25814;48.550;9.108;2022-10-16T01:04:45;30.00;27.67;39.03;;
40103;Laerm;25814;48.550;9.108;2022-10-16T01:10:32;29.49;27.62;51.88;;
40103;Laerm;25814;48.550;9.108;2022-10-16T01:13:11;29.18;27.66;31.39;;
40103;Laerm;25814;48.550;9.108;2022-10-16T01:16:02;29.99;27.84;39.89;;
40103;Laerm;25814;48.550;9.108;2022-10-16T01:18:54;30.49;27.99;39.80;;
40103;Laerm;25814;48.550;9.108;2022-10-16T01:21:28;32.72;27.96;48.86;;
40103;Laerm;25814;48.550;9.108;2022-10-16T01:30:10;29.44;27.66;41.78;;
40103;Laerm;25814;48.550;9.108;2022-10-16T01:38:00;29.66;27.77;41.88;;
40103;Laerm;25814;48.550;9.108;2022-10-16T01:40:32;29.51;27.37;51.38;;
40103;Laerm;25814;48.550;9.108;2022-10-16T01:43:08;29.00;27.54;36.68;;
40103;Laerm;25814;48.550;9.108;2022-10-16T01:45:38;29.06;27.61;35.28;;
40103;Laerm;25814;48.550;9.108;2022-10-16T01:48:07;29.13;27.39;34.62;;
40103;Laerm;25814;48.550;9.108;2022-10-16T01:50:41;29.04;27.61;31.62;;
40103;Laerm;25814;48.550;9.108;2022-10-16T01:53:12;29.25;27.70;31.78;;
40103;Laerm;25814;48.550;9.108;2022-10-16T01:55:45;29.37;27.66;32.06;;
40103;Laerm;25814;48.550;9.108;2022-10-16T01:58:16;29.25;27.49;32.60;;
40103;Laerm;25814;48.550;9.108;2022-10-16T02:00:45;29.17;27.57;32.41;;
40103;Laerm;25814;48.550;9.108;2022-10-16T02:03:17;28.94;27.28;31.40;;
40103;Laerm;25814;48.550;9.108;2022-10-16T02:05:55;28.94;27.54;35.68;;
40103;Laerm;25814;48.550;9.108;2022-10-16T02:08:25;29.14;27.65;32.43;;
40103;Laerm;25814;48.550;9.108;2022-10-16T02:10:56;29.22;27.44;31.64;;
40103;Laerm;25814;48.550;9.108;2022-10-16T02:13:48;28.97;27.51;33.98;;
40103;Laerm;25814;48.550;9.108;2022-10-16T02:16:16;29.00;27.34;31.08;;
40103;Laerm;25814;48.550;9.108;2022-10-16T02:18:43;29.23;27.66;31.39;;
40103;Laerm;25814;48.550;9.108;2022-10-16T02:21:25;32.95;27.58;47.01;;
40103;Laerm;25814;48.550;9.108;2022-10-16T02:29:26;29.41;27.76;32.05;;
40103;Laerm;25814;48.550;9.108;2022-10-16T02:32:01;29.58;27.73;50.93;;
40103;Laerm;25814;48.550;9.108;2022-10-16T02:34:32;29.04;27.45;32.00;;
40103;Laerm;25814;48.550;9.108;2022-10-16T02:37:01;30.00;27.52;42.38;;
40103;Laerm;25814;48.550;9.108;2022-10-16T02:39:29;29.56;27.52;35.01;;
40103;Laerm;25814;48.550;9.108;2022-10-16T02:41:57;29.72;27.73;36.14;;
40103;Laerm;25814;48.550;9.108;2022-10-16T02:44:22;29.48;27.40;34.09;;
40103;Laerm;25814;48.550;9.108;2022-10-16T02:46:48;32.03;28.03;36.45;;
40103;Laerm;25814;48.550;9.108;2022-10-16T02:49:14;28.96;27.45;31.71;;
40103;Laerm;25814;48.550;9.108;2022-10-16T02:51:40;33.59;27.47;50.18;;
40103;Laerm;25814;48.550;9.108;2022-10-16T02:54:05;31.16;27.58;43.43;;
40103;Laerm;25814;48.550;9.108;2022-10-16T02:56:31;29.83;27.51;37.85;;
40103;Laerm;25814;48.550;9.108;2022-10-16T02:58:57;29.26;27.62;35.37;;
40103;Laerm;25814;48.550;9.108;2022-10-16T03:01:23;29.23;27.66;37.54;;
40103;Laerm;25814;48.550;9.108;2022-10-16T03:03:49;29.56;27.65;34.47;;
40103;Laerm;25814;48.550;9.108;2022-10-16T03:06:15;30.31;28.05;37.01;;
40103;Laerm;25814;48.550;9.108;2022-10-16T03:08:41;29.55;27.81;40.16;;
40103;Laerm;25814;48.550;9.108;2022-10-16T03:11:07;29.42;27.91;42.68;;
40103;Laerm;25814;48.550;9.108;2022-10-16T03:13:32;29.55;27.75;34.81;;
40103;Laerm;25814;48.550;9.108;2022-10-16T03:15:58;29.99;28.20;36.44;;
40103;Laerm;25814;48.550;9.108;2022-10-16T03:18:24;29.75;28.07;33.93;;
40103;Laerm;25814;48.550;9.108;2022-10-16T03:20:50;34.08;28.40;52.15;;
40103;Laerm;25814;48.550;9.108;2022-10-16T03:23:15;38.90;32.15;45.15;;
40103;Laerm;25814;48.550;9.108;2022-10-16T03:25:41;31.83;28.69;43.54;;
40103;Laerm;25814;48.550;9.108;2022-10-16T03:28:07;30.29;28.42;39.34;;
40103;Laerm;25814;48.550;9.108;2022-10-16T03:30:33;31.37;28.49;38.65;;
40103;Laerm;25814;48.550;9.108;2022-10-16T03:32:59;30.30;28.30;42.50;;
40103;Laerm;25814;48.550;9.108;2022-10-16T03:35:25;29.76;28.11;36.20;;
40103;Laerm;25814;48.550;9.108;2022-10-16T03:37:50;29.68;27.97;32.85;;
40103;Laerm;25814;48.550;9.108;2022-10-16T03:40:17;29.82;27.91;53.22;;
40103;Laerm;25814;48.550;9.108;2022-10-16T03:42:43;29.83;28.10;36.45;;
40103;Laerm;25814;48.550;9.108;2022-10-16T03:45:10;30.28;28.26;35.21;;
40103;Laerm;25814;48.550;9.108;2022-10-16T03:47:36;34.18;28.26;48.55;;
40103;Laerm;25814;48.550;9.108;2022-10-16T03:50:04;30.63;28.21;40.24;;
40103;Laerm;25814;48.550;9.108;2022-10-16T03:52:30;29.74;27.77;39.97;;
40103;Laerm;25814;48.550;9.108;2022-10-16T03:54:57;29.97;27.46;35.78;;
40103;Laerm;25814;48.550;9.108;2022-10-16T03:57:23;29.44;27.73;32.05;;
40103;Laerm;25814;48.550;9.108;2022-10-16T03:59:49;29.01;27.20;38.03;;
40103;Laerm;25814;48.550;9.108;2022-10-16T04:02:15;29.62;27.87;38.85;;
40103;Laerm;25814;48.550;9.108;2022-10-16T04:04:40;29.94;27.91;40.51;;
40103;Laerm;25814;48.550;9.108;2022-10-16T04:07:06;29.86;27.91;40.97;;
40103;Laerm;25814;48.550;9.108;2022-10-16T04:09:32;29.23;27.68;39.72;;
40103;Laerm;25814;48.550;9.108;2022-10-16T04:11:58;29.73;27.78;38.94;;
40103;Laerm;25814;48.550;9.108;2022-10-16T04:14:23;31.33;28.18;47.78;;
40103;Laerm;25814;48.550;9.108;2022-10-16T04:16:49;30.35;28.03;38.93;;
40103;Laerm;25814;48.550;9.108;2022-10-16T04:19:15;31.38;28.21;40.59;;
40103;Laerm;25814;48.550;9.108;2022-10-16T04:21:41;31.56;28.53;39.83;;
40103;Laerm;25814;48.550;9.108;2022-10-16T04:24:06;30.19;28.15;34.96;;
40103;Laerm;25814;48.550;9.108;2022-10-16T04:26:32;30.64;28.66;33.98;;
40103;Laerm;25814;48.550;9.108;2022-10-16T04:28:58;30.36;28.17;39.78;;
40103;Laerm;25814;48.550;9.108;2022-10-16T04:31:24;29.86;28.01;37.38;;
40103;Laerm;25814;48.550;9.108;2022-10-16T04:33:50;30.13;28.15;35.17;;
40103;Laerm;25814;48.550;9.108;2022-10-16T04:36:15;32.26;28.57;43.54;;
40103;Laerm;25814;48.550;9.108;2022-10-16T04:38:41;31.45;28.54;39.75;;
40103;Laerm;25814;48.550;9.108;2022-10-16T04:41:08;36.88;29.12;48.55;;
40103;Laerm;25814;48.550;9.108;2022-10-16T04:43:34;33.66;28.96;43.85;;
40103;Laerm;25814;48.550;9.108;2022-10-16T04:45:59;33.66;28.93;45.87;;
40103;Laerm;25814;48.550;9.108;2022-10-16T04:48:26;29.80;27.96;32.80;;
40103;Laerm;25814;48.550;9.108;2022-10-16T04:50:52;30.04;28.01;36.47;;
40103;Laerm;25814;48.550;9.108;2022-10-16T04:53:17;35.31;28.74;45.85;;
40103;Laerm;25814;48.550;9.108;2022-10-16T04:55:43;31.92;28.51;42.81;;
40103;Laerm;25814;48.550;9.108;2022-10-16T04:58:09;35.33;28.50;46.47;;
40103;Laerm;25814;48.550;9.108;2022-10-16T05:00:35;41.00;28.42;66.76;;
40103;Laerm;25814;48.550;9.108;2022-10-16T05:03:01;32.53;28.60;47.23;;
40103;Laerm;25814;48.550;9.108;2022-10-16T05:05:31;33.56;28.91;42.27;;
40103;Laerm;25814;48.550;9.108;2022-10-16T05:07:57;34.30;30.03;42.32;;
40103;Laerm;25814;48.550;9.108;2022-10-16T05:10:23;38.24;29.40;48.60;;
40103;Laerm;25814;48.550;9.108;2022-10-16T05:12:48;34.82;29.85;52.55;;
40103;Laerm;25814;48.550;9.108;2022-10-16T05:15:14;33.50;29.84;48.50;;
40103;Laerm;25814;48.550;9.108;2022-10-16T05:17:40;33.86;28.86;46.72;;
40103;Laerm;25814;48.550;9.108;2022-10-16T05:20:06;35.61;29.44;46.57;;
40103;Laerm;25814;48.550;9.108;2022-10-16T05:22:32;36.83;29.42;47.80;;
40103;Laerm;25814;48.550;9.108;2022-10-16T05:24:58;34.58;28.72;46.25;;
40103;Laerm;25814;48.550;9.108;2022-10-16T05:27:23;42.71;28.95;68.53;;
40103;Laerm;25814;48.550;9.108;2022-10-16T05:29:49;43.88;29.15;66.37;;
40103;Laerm;25814;48.550;9.108;2022-10-16T05:32:17;44.04;28.65;62.50;;
40103;Laerm;25814;48.550;9.108;2022-10-16T05:34:44;42.54;29.70;65.23;;
40103;Laerm;25814;48.550;9.108;2022-10-16T05:37:11;36.88;31.56;50.09;;
40103;Laerm;25814;48.550;9.108;2022-10-16T05:39:40;36.89;28.98;53.21;;
40103;Laerm;25814;48.550;9.108;2022-10-16T05:42:06;39.86;28.89;56.92;;
40103;Laerm;25814;48.550;9.108;2022-10-16T05:44:32;40.16;28.67;61.11;;
40103;Laerm;25814;48.550;9.108;2022-10-16T05:46:58;33.13;29.33;49.50;;
40103;Laerm;25814;48.550;9.108;2022-10-16T05:49:24;38.64;28.98;61.22;;
40103;Laerm;25814;48.550;9.108;2022-10-16T05:51:50;52.41;29.05;72.75;;
40103;Laerm;25814;48.550;9.108;2022-10-16T05:54:16;34.39;29.11;44.82;;
40103;Laerm;25814;48.550;9.108;2022-10-16T05:56:42;33.69;29.46;47.06;;
40103;Laerm;25814;48.550;9.108;2022-10-16T05:59:08;52.79;30.86;81.91;;
40103;Laerm;25814;48.550;9.108;2022-10-16T06:01:34;35.97;31.05;51.99;;
40103;Laerm;25814;48.550;9.108;2022-10-16T06:04:01;41.53;29.83;62.65;;
40103;Laerm;25814;48.550;9.108;2022-10-16T06:06:28;42.35;29.67;65.66;;
40103;Laerm;25814;48.550;9.108;2022-10-16T06:08:56;36.07;29.25;58.17;;
40103;Laerm;25814;48.550;9.108;2022-10-16T06:11:26;36.93;30.14;51.39;;
40103;Laerm;25814;48.550;9.108;2022-10-16T06:13:55;34.94;29.90;54.67;;
40103;Laerm;25814;48.550;9.108;2022-10-16T06:16:26;47.68;30.21;67.26;;
40103;Laerm;25814;48.550;9.108;2022-10-16T06:18:54;43.48;29.43;65.91;;
40103;Laerm;25814;48.550;9.108;2022-10-16T06:21:24;44.06;30.34;56.86;;
40103;Laerm;25814;48.550;9.108;2022-10-16T06:23:50;36.34;30.27;47.08;;
40103;Laerm;25814;48.550;9.108;2022-10-16T06:26:21;33.43;30.01;48.98;;
40103;Laerm;25814;48.550;9.108;2022-10-16T06:28:47;33.78;29.91;49.32;;
40103;Laerm;25814;48.550;9.108;2022-10-16T06:31:15;36.88;31.03;60.85;;
40103;Laerm;25814;48.550;9.108;2022-10-16T06:33:42;41.15;30.19;63.82;;
40103;Laerm;25814;48.550;9.108;2022-10-16T06:36:12;40.08;30.12;62.95;;
40103;Laerm;25814;48.550;9.108;2022-10-16T06:38:38;43.10;30.74;64.99;;
40103;Laerm;25814;48.550;9.108;2022-10-16T06:41:05;41.76;30.05;61.52;;
40103;Laerm;25814;48.550;9.108;2022-10-16T06:43:33;38.83;29.54;60.88;;
40103;Laerm;25814;48.550;9.108;2022-10-16T06:46:02;42.06;29.61;62.49;;
40103;Laerm;25814;48.550;9.108;2022-10-16T06:48:29;34.81;29.52;53.18;;
40103;Laerm;25814;48.550;9.108;2022-10-16T06:50:58;32.55;29.31;44.63;;
40103;Laerm;25814;48.550;9.108;2022-10-16T06:53:27;33.41;29.68;45.52;;
40103;Laerm;25814;48.550;9.108;2022-10-16T06:55:52;34.15;29.99;52.57;;
40103;Laerm;25814;48.550;9.108;2022-10-16T06:58:19;33.10;29.90;47.33;;
40103;Laerm;25814;48.550;9.108;2022-10-16T07:00:45;34.80;29.64;56.69;;
40103;Laerm;25814;48.550;9.108;2022-10-16T07:03:10;36.61;31.45;57.44;;
40103;Laerm;25814;48.550;9.108;2022-10-16T07:05:41;32.94;29.67;46.04;;
40103;Laerm;25814;48.550;9.108;2022-10-16T07:08:08;32.35;29.33;43.85;;
40103;Laerm;25814;48.550;9.108;2022-10-16T07:10:34;35.71;30.11;45.65;;
40103;Laerm;25814;48.550;9.108;2022-10-16T07:13:01;34.49;30.78;48.97;;
40103;Laerm;25814;48.550;9.108;2022-10-16T07:15:27;35.56;30.92;50.37;;
40103;Laerm;25814;48.550;9.108;2022-10-16T07:17:53;33.45;30.75;47.30;;
40103;Laerm;25814;48.550;9.108;2022-10-16T07:20:19;34.90;30.57;50.05;;
40103;Laerm;25814;48.550;9.108;2022-10-16T07:22:45;37.84;30.83;62.15;;
40103;Laerm;25814;48.550;9.108;2022-10-16T07:25:11;36.03;31.42;49.57;;
40103;Laerm;25814;48.550;9.108;2022-10-16T07:27:38;35.46;31.35;47.04;;
40103;Laerm;25814;48.550;9.108;2022-10-16T07:30:04;33.79;31.07;45.47;;
40103;Laerm;25814;48.550;9.108;2022-10-16T07:32:31;39.90;31.30;58.95;;
40103;Laerm;25814;48.550;9.108;2022-10-16T07:34:57;40.01;32.31;54.03;;
40103;Laerm;25814;48.550;9.108;2022-10-16T07:37:22;41.39;30.36;63.76;;
40103;Laerm;25814;48.550;9.108;2022-10-16T07:39:48;46.96;30.62;63.43;;
40103;Laerm;25814;48.550;9.108;2022-10-16T07:42:14;44.03;31.81;64.06;;
40103;Laerm;25814;48.550;9.108;2022-10-16T07:44:40;42.89;31.88;67.18;;
40103;Laerm;25814;48.550;9.108;2022-10-16T07:47:07;43.30;33.55;62.76;;
40103;Laerm;25814;48.550;9.108;2022-10-16T07:49:33;41.79;32.65;59.04;;
40103;Laerm;25814;48.550;9.108;2022-10-16T07:51:59;35.49;32.03;45.81;;
40103;Laerm;25814;48.550;9.108;2022-10-16T07:54:25;35.68;30.77;54.93;;
40103;Laerm;25814;48.550;9.108;2022-10-16T07:56:51;38.12;32.96;46.81;;
40103;Laerm;25814;48.550;9.108;2022-10-16T07:59:16;39.37;34.57;48.26;;
40103;Laerm;25814;48.550;9.108;2022-10-16T08:01:42;39.24;32.88;52.94;;
40103;Laerm;25814;48.550;9.108;2022-10-16T08:04:09;37.15;31.74;44.54;;
40103;Laerm;25814;48.550;9.108;2022-10-16T08:06:38;36.69;30.43;54.93;;
40103;Laerm;25814;48.550;9.108;2022-10-16T08:09:05;39.11;30.53;65.39;;
40103;Laerm;25814;48.550;9.108;2022-10-16T08:11:31;36.09;30.64;49.39;;
40103;Laerm;25814;48.550;9.108;2022-10-16T08:13:57;38.39;30.67;65.14;;
40103;Laerm;25814;48.550;9.108;2022-10-16T08:16:23;34.25;30.93;45.69;;
40103;Laerm;25814;48.550;9.108;2022-10-16T08:18:49;35.95;30.41;54.82;;
40103;Laerm;25814;48.550;9.108;2022-10-16T08:21:20;51.37;31.45;75.43;;
40103;Laerm;25814;48.550;9.108;2022-10-16T08:23:46;46.49;31.16;69.71;;
40103;Laerm;25814;48.550;9.108;2022-10-16T08:26:12;46.03;31.41;68.49;;
40103;Laerm;25814;48.550;9.108;2022-10-16T08:28:39;51.26;31.09;73.54;;
40103;Laerm;25814;48.550;9.108;2022-10-16T08:31:11;43.70;30.58;61.19;;
40103;Laerm;25814;48.550;9.108;2022-10-16T08:33:40;48.97;31.37;75.30;;
40103;Laerm;25814;48.550;9.108;2022-10-16T08:36:06;48.05;33.36;68.62;;
40103;Laerm;25814;48.550;9.108;2022-10-16T08:38:33;46.52;33.76;63.04;;
40103;Laerm;25814;48.550;9.108;2022-10-16T08:41:51;46.27;31.20;73.68;;
40103;Laerm;25814;48.550;9.108;2022-10-16T08:47:17;41.94;30.88;61.65;;
40103;Laerm;25814;48.550;9.108;2022-10-16T08:50:00;47.04;31.31;74.01;;
40103;Laerm;25814;48.550;9.108;2022-10-16T08:52:34;40.47;31.92;61.79;;
40103;Laerm;25814;48.550;9.108;2022-10-16T08:55:01;44.78;31.00;66.83;;
40103;Laerm;25814;48.550;9.108;2022-10-16T08:57:27;46.37;32.19;66.33;;
40103;Laerm;25814;48.550;9.108;2022-10-16T08:59:54;45.31;31.56;64.92;;
40103;Laerm;25814;48.550;9.108;2022-10-16T09:02:30;46.12;31.12;71.51;;
40103;Laerm;25814;48.550;9.108;2022-10-16T09:05:41;42.12;30.53;60.63;;
40103;Laerm;25814;48.550;9.108;2022-10-16T09:11:14;37.33;31.37;56.98;;
40103;Laerm;25814;48.550;9.108;2022-10-16T09:14:06;44.84;31.43;63.73;;
40103;Laerm;25814;48.550;9.108;2022-10-16T09:16:46;48.86;31.81;68.62;;
40103;Laerm;25814;48.550;9.108;2022-10-16T09:19:38;46.09;30.77;66.14;;
40103;Laerm;25814;48.550;9.108;2022-10-16T09:22:15;46.73;32.54;66.06;;
40103;Laerm;25814;48.550;9.108;2022-10-16T09:24:42;42.32;31.84;63.47;;
40103;Laerm;25814;48.550;9.108;2022-10-16T09:27:14;53.29;31.67;82.73;;
40103;Laerm;25814;48.550;9.108;2022-10-16T09:29:41;48.76;32.14;72.42;;
40103;Laerm;25814;48.550;9.108;2022-10-16T09:32:20;45.70;32.38;64.27;;
40103;Laerm;25814;48.550;9.108;2022-10-16T09:34:55;45.06;31.63;62.73;;
40103;Laerm;25814;48.550;9.108;2022-10-16T09:37:24;51.26;31.59;73.40;;
40103;Laerm;25814;48.550;9.108;2022-10-16T09:39:54;46.51;31.66;66.51;;
40103;Laerm;25814;48.550;9.108;2022-10-16T09:42:30;43.37;31.45;63.33;;
40103;Laerm;25814;48.550;9.108;2022-10-16T09:44:57;44.22;30.77;62.70;;
40103;Laerm;25814;48.550;9.108;2022-10-16T09:47:26;39.50;30.60;58.80;;
40103;Laerm;25814;48.550;9.108;2022-10-16T09:52:25;50.58;31.41;68.73;;
40103;Laerm;25814;48.550;9.108;2022-10-16T09:55:09;45.15;34.30;62.49;;
40103;Laerm;25814;48.550;9.108;2022-10-16T09:57:55;42.24;34.60;59.49;;
40103;Laerm;25814;48.550;9.108;2022-10-16T10:00:22;52.17;34.68;73.97;;
40103;Laerm;25814;48.550;9.108;2022-10-16T10:02:49;47.76;33.89;66.53;;
40103;Laerm;25814;48.550;9.108;2022-10-16T10:05:24;48.69;32.51;67.37;;
40103;Laerm;25814;48.550;9.108;2022-10-16T10:08:00;44.60;34.08;70.09;;
40103;Laerm;25814;48.550;9.108;2022-10-16T10:10:32;43.88;34.41;68.57;;
40103;Laerm;25814;48.550;9.108;2022-10-16T10:12:58;42.80;34.57;68.86;;
40103;Laerm;25814;48.550;9.108;2022-10-16T10:15:33;44.60;33.44;71.11;;
40103;Laerm;25814;48.550;9.108;2022-10-16T10:18:00;51.35;34.07;73.32;;
40103;Laerm;25814;48.550;9.108;2022-10-16T10:20:35;42.01;33.88;66.00;;
40103;Laerm;25814;48.550;9.108;2022-10-16T10:23:24;38.52;33.89;51.17;;
40103;Laerm;25814;48.550;9.108;2022-10-16T10:26:22;37.28;30.29;48.92;;
40103;Laerm;25814;48.550;9.108;2022-10-16T10:40:24;35.85;30.42;57.35;;
40103;Laerm;25814;48.550;9.108;2022-10-16T10:45:48;34.63;29.48;61.02;;
40103;Laerm;25814;48.550;9.108;2022-10-16T10:48:49;32.91;29.27;57.44;;
40103;Laerm;25814;48.550;9.108;2022-10-16T10:51:43;38.97;29.64;67.41;;
40103;Laerm;25814;48.550;9.108;2022-10-16T10:54:33;37.92;29.88;53.37;;
40103;Laerm;25814;48.550;9.108;2022-10-16T10:57:33;34.64;29.75;49.44;;
40103;Laerm;25814;48.550;9.108;2022-10-16T11:00:16;36.24;29.32;48.76;;
40103;Laerm;25814;48.550;9.108;2022-10-16T11:03:08;38.02;29.86;49.96;;
40103;Laerm;25814;48.550;9.108;2022-10-16T11:06:05;38.79;30.17;49.30;;
40103;Laerm;25814;48.550;9.108;2022-10-16T11:08:39;37.23;29.89;48.05;;
40103;Laerm;25814;48.550;9.108;2022-10-16T11:14:17;40.40;30.31;58.49;;
40103;Laerm;25814;48.550;9.108;2022-10-16T11:17:01;36.67;29.24;62.94;;
40103;Laerm;25814;48.550;9.108;2022-10-16T11:19:46;37.50;30.57;52.45;;
40103;Laerm;25814;48.550;9.108;2022-10-16T11:22:37;38.42;29.90;55.55;;
40103;Laerm;25814;48.550;9.108;2022-10-16T11:25:28;35.82;30.27;49.33;;
40103;Laerm;25814;48.550;9.108;2022-10-16T11:39:25;35.73;29.60;54.60;;
40103;Laerm;25814;48.550;9.108;2022-10-16T11:42:33;35.99;30.61;46.91;;
40103;Laerm;25814;48.550;9.108;2022-10-16T11:48:39;38.49;29.99;60.02;;
40103;Laerm;25814;48.550;9.108;2022-10-16T11:54:45;33.70;30.16;48.26;;
40103;Laerm;25814;48.550;9.108;2022-10-16T11:57:33;37.75;30.31;51.58;;
40103;Laerm;25814;48.550;9.108;2022-10-16T12:00:28;40.32;30.01;61.07;;
40103;Laerm;25814;48.550;9.108;2022-10-16T12:03:25;40.10;30.73;54.65;;
40103;Laerm;25814;48.550;9.108;2022-10-16T12:08:55;37.79;31.96;60.52;;
40103;Laerm;25814;48.550;9.108;2022-10-16T12:16:57;47.40;30.17;67.69;;
40103;Laerm;25814;48.550;9.108;2022-10-16T12:19:27;33.93;29.78;62.77;;
40103;Laerm;25814;48.550;9.108;2022-10-16T12:21:58;35.88;30.41;45.78;;
40103;Laerm;25814;48.550;9.108;2022-10-16T12:24:43;39.76;30.25;66.66;;
40103;Laerm;25814;48.550;9.108;2022-10-16T12:27:35;35.19;29.90;49.07;;
40103;Laerm;25814;48.550;9.108;2022-10-16T12:30:06;35.98;30.51;55.53;;
40103;Laerm;25814;48.550;9.108;2022-10-16T12:32:37;35.34;29.67;48.18;;
40103;Laerm;25814;48.550;9.108;2022-10-16T12:35:24;37.26;30.66;64.89;;
40103;Laerm;25814;48.550;9.108;2022-10-16T12:37:52;40.42;30.11;57.69;;
40103;Laerm;25814;48.550;9.108;2022-10-16T12:40:28;36.14;29.52;61.74;;
40103;Laerm;25814;48.550;9.108;2022-10-16T12:42:55;46.54;30.20;59.52;;
40103;Laerm;25814;48.550;9.108;2022-10-16T12:45:32;48.81;43.07;73.88;;
40103;Laerm;25814;48.550;9.108;2022-10-16T12:48:02;38.48;29.79;56.66;;
40103;Laerm;25814;48.550;9.108;2022-10-16T12:50:37;35.34;29.91;48.64;;
40103;Laerm;25814;48.550;9.108;2022-10-16T12:53:19;36.50;29.45;48.52;;
40103;Laerm;25814;48.550;9.108;2022-10-16T13:02:19;35.81;30.51;56.27;;
40103;Laerm;25814;48.550;9.108;2022-10-16T13:17:35;55.22;29.49;69.58;;
40103;Laerm;25814;48.550;9.108;2022-10-16T13:23:13;35.32;29.67;48.04;;
40103;Laerm;25814;48.550;9.108;2022-10-16T13:28:43;38.84;29.87;57.74;;
40103;Laerm;25814;48.550;9.108;2022-10-16T13:31:21;41.83;30.12;62.07;;
40103;Laerm;25814;48.550;9.108;2022-10-16T13:33:56;42.89;30.59;63.59;;
40103;Laerm;25814;48.550;9.108;2022-10-16T13:36:33;38.17;29.33;57.52;;
40103;Laerm;25814;48.550;9.108;2022-10-16T13:39:29;35.01;29.46;64.04;;
40103;Laerm;25814;48.550;9.108;2022-10-16T13:42:11;34.03;29.09;45.08;;
40103;Laerm;25814;48.550;9.108;2022-10-16T13:44:52;35.34;29.25;58.76;;
40103;Laerm;25814;48.550;9.108;2022-10-16T13:47:28;42.23;29.14;64.44;;
40103;Laerm;25814;48.550;9.108;2022-10-16T13:50:21;34.01;28.72;50.00;;
40103;Laerm;25814;48.550;9.108;2022-10-16T13:52:46;40.95;29.18;64.46;;
40103;Laerm;25814;48.550;9.108;2022-10-16T13:55:18;41.26;29.36;56.67;;
40103;Laerm;25814;48.550;9.108;2022-10-16T13:57:45;41.08;29.82;56.08;;
40103;Laerm;25814;48.550;9.108;2022-10-16T14:00:26;35.87;30.10;49.11;;
40103;Laerm;25814;48.550;9.108;2022-10-16T14:03:13;34.58;29.05;48.04;;
40103;Laerm;25814;48.550;9.108;2022-10-16T14:06:06;37.27;29.34;51.91;;
40103;Laerm;25814;48.550;9.108;2022-10-16T14:08:44;32.42;29.04;43.55;;
40103;Laerm;25814;48.550;9.108;2022-10-16T14:11:12;31.44;28.90;39.58;;
40103;Laerm;25814;48.550;9.108;2022-10-16T14:13:44;35.53;29.12;62.46;;
40103;Laerm;25814;48.550;9.108;2022-10-16T14:16:18;34.07;28.67;47.33;;
40103;Laerm;25814;48.550;9.108;2022-10-16T14:19:02;33.57;29.06;48.89;;
40103;Laerm;25814;48.550;9.108;2022-10-16T14:21:31;37.24;30.23;45.81;;
40103;Laerm;25814;48.550;9.108;2022-10-16T14:23:57;36.44;28.91;56.27;;
40103;Laerm;25814;48.550;9.108;2022-10-16T14:26:27;30.94;28.33;48.73;;
40103;Laerm;25814;48.550;9.108;2022-10-16T14:29:15;31.83;28.34;40.64;;
40103;Laerm;25814;48.550;9.108;2022-10-16T14:31:58;33.35;29.06;52.04;;
40103;Laerm;25814;48.550;9.108;2022-10-16T14:34:27;33.23;28.43;44.25;;
40103;Laerm;25814;48.550;9.108;2022-10-16T14:36:55;32.62;28.93;48.45;;
40103;Laerm;25814;48.550;9.108;2022-10-16T14:39:23;32.86;29.09;47.27;;
40103;Laerm;25814;48.550;9.108;2022-10-16T14:41:52;34.62;29.53;49.23;;
40103;Laerm;25814;48.550;9.108;2022-10-16T14:44:31;32.22;29.00;50.42;;
40103;Laerm;25814;48.550;9.108;2022-10-16T14:47:07;31.30;28.89;41.00;;
40103;Laerm;25814;48.550;9.108;2022-10-16T14:49:33;39.02;28.94;54.22;;
40103;Laerm;25814;48.550;9.108;2022-10-16T14:51:59;44.58;29.17;64.44;;
40103;Laerm;25814;48.550;9.108;2022-10-16T14:54:25;41.32;30.09;53.02;;
40103;Laerm;25814;48.550;9.108;2022-10-16T14:56:57;32.70;28.97;46.04;;
40103;Laerm;25814;48.550;9.108;2022-10-16T14:59:40;35.47;29.37;46.57;;
40103;Laerm;25814;48.550;9.108;2022-10-16T15:02:33;33.81;28.84;48.72;;
40103;Laerm;25814;48.550;9.108;2022-10-16T15:05:26;35.21;29.36;42.99;;
40103;Laerm;25814;48.550;9.108;2022-10-16T15:07:54;31.67;28.64;54.29;;
40103;Laerm;25814;48.550;9.108;2022-10-16T15:10:23;32.68;29.07;52.29;;
40103;Laerm;25814;48.550;9.108;2022-10-16T15:12:49;33.93;28.52;46.35;;
40103;Laerm;25814;48.550;9.108;2022-10-16T15:15:36;34.84;29.37;53.56;;
40103;Laerm;25814;48.550;9.108;2022-10-16T15:18:04;33.00;29.56;52.27;;
40103;Laerm;25814;48.550;9.108;2022-10-16T15:20:34;46.54;28.56;71.49;;
40103;Laerm;25814;48.550;9.108;2022-10-16T15:23:03;43.55;31.41;64.63;;
40103;Laerm;25814;48.550;9.108;2022-10-16T15:25:53;37.03;29.76;59.69;;
40103;Laerm;25814;48.550;9.108;2022-10-16T15:28:21;34.41;29.38;47.43;;
40103;Laerm;25814;48.550;9.108;2022-10-16T15:30:51;31.23;28.88;40.58;;
40103;Laerm;25814;48.550;9.108;2022-10-16T15:33:22;32.44;28.59;48.33;;
40103;Laerm;25814;48.550;9.108;2022-10-16T15:35:51;44.19;29.36;73.68;;
40103;Laerm;25814;48.550;9.108;2022-10-16T15:38:20;41.95;29.05;70.35;;
40103;Laerm;25814;48.550;9.108;2022-10-16T15:40:47;32.62;29.19;44.27;;
40103;Laerm;25814;48.550;9.108;2022-10-16T15:43:13;37.87;28.86;55.38;;
40103;Laerm;25814;48.550;9.108;2022-10-16T15:45:39;47.00;30.03;70.26;;
40103;Laerm;25814;48.550;9.108;2022-10-16T15:48:06;44.55;29.57;60.54;;